地図

経路データ

SID SEASON NUMBER BASIN SUBBASIN NAME ISO_TIME NATURE LAT LON WMO_WIND WMO_PRES WMO_AGENCY TRACK_TYPE DIST2LAND LANDFALL IFLAG USA_AGENCY USA_ATCF_ID USA_LAT USA_LON USA_RECORD USA_STATUS USA_WIND USA_PRES USA_SSHS USA_R34_NE USA_R34_SE USA_R34_SW USA_R34_NW USA_R50_NE USA_R50_SE USA_R50_SW USA_R50_NW USA_R64_NE USA_R64_SE USA_R64_SW USA_R64_NW USA_POCI USA_ROCI USA_RMW USA_EYE TOKYO_LAT TOKYO_LON TOKYO_GRADE TOKYO_WIND TOKYO_PRES TOKYO_R50_DIR TOKYO_R50_LONG TOKYO_R50_SHORT TOKYO_R30_DIR TOKYO_R30_LONG TOKYO_R30_SHORT TOKYO_LAND CMA_LAT CMA_LON CMA_CAT CMA_WIND CMA_PRES HKO_LAT HKO_LON HKO_CAT HKO_WIND HKO_PRES NEWDELHI_LAT NEWDELHI_LON NEWDELHI_GRADE NEWDELHI_WIND NEWDELHI_PRES NEWDELHI_CI NEWDELHI_DP NEWDELHI_POCI REUNION_LAT REUNION_LON REUNION_TYPE REUNION_WIND REUNION_PRES REUNION_TNUM REUNION_CI REUNION_RMW REUNION_R34_NE REUNION_R34_SE REUNION_R34_SW REUNION_R34_NW REUNION_R50_NE REUNION_R50_SE REUNION_R50_SW REUNION_R50_NW REUNION_R64_NE REUNION_R64_SE REUNION_R64_SW REUNION_R64_NW BOM_LAT BOM_LON BOM_TYPE BOM_WIND BOM_PRES BOM_TNUM BOM_CI BOM_RMW BOM_R34_NE BOM_R34_SE BOM_R34_SW BOM_R34_NW BOM_R50_NE BOM_R50_SE BOM_R50_SW BOM_R50_NW BOM_R64_NE BOM_R64_SE BOM_R64_SW BOM_R64_NW BOM_ROCI BOM_POCI BOM_EYE BOM_POS_METHOD BOM_PRES_METHOD NADI_LAT NADI_LON NADI_CAT NADI_WIND NADI_PRES WELLINGTON_LAT WELLINGTON_LON WELLINGTON_WIND WELLINGTON_PRES DS824_LAT DS824_LON DS824_STAGE DS824_WIND DS824_PRES TD9636_LAT TD9636_LON TD9636_STAGE TD9636_WIND TD9636_PRES TD9635_LAT TD9635_LON TD9635_WIND TD9635_PRES TD9635_ROCI NEUMANN_LAT NEUMANN_LON NEUMANN_CLASS NEUMANN_WIND NEUMANN_PRES MLC_LAT MLC_LON MLC_CLASS MLC_WIND MLC_PRES USA_GUST BOM_GUST BOM_GUST_PER REUNION_GUST REUNION_GUST_PER USA_SEAHGT USA_SEARAD_NE USA_SEARAD_SE USA_SEARAD_SW USA_SEARAD_NW STORM_SPEED STORM_DIR
1926325N10085 1926 60 NI BB NOT_NAMED 1926-11-21 00:00:00 TS 10.3000 85.3000 main 478 478 _________O____ -1 10.3000 85.3000 TC 30 2 70
1926325N10085 1926 60 NI BB NOT_NAMED 1926-11-21 03:00:00 TS 10.3350 85.4000 main 488 488 _________PO___ -1 10.3525 85.4500 TC 30 10.3000 85.3000 1 2 72
1926325N10085 1926 60 NI BB NOT_NAMED 1926-11-21 06:00:00 TS 10.3763 85.5412 main 502 502 _________OP___ -1 10.4000 85.6000 TC 30 10.3407 85.4531 1 3 74
1926325N10085 1926 60 NI BB NOT_NAMED 1926-11-21 09:00:00 TS 10.4179 85.6879 main 522 522 _________PP___ -1 10.4425 85.7500 TC 30 10.3851 85.6050 1 3 72
1926325N10085 1926 60 NI BB NOT_NAMED 1926-11-21 12:00:00 TS 10.4685 85.8272 main 537 537 _________OP___ -1 10.5000 85.9000 TC 30 10.4369 85.7543 1 3 66
1926325N10085 1926 60 NI BB NOT_NAMED 1926-11-21 15:00:00 TS 10.5462 85.9750 main 557 557 _________PO___ -1 10.5925 86.0500 TC 31 10.5000 85.9000 1 3 60
1926325N10085 1926 60 NI BB NOT_NAMED 1926-11-21 18:00:00 TS 10.6387 86.1210 main 571 571 _________OP___ -1 10.7000 86.2000 TC 32 10.5774 86.0419 1 3 57
1926325N10085 1926 60 NI BB NOT_NAMED 1926-11-21 21:00:00 TS 10.7312 86.2638 main 596 596 _________PP___ -1 10.7925 86.3425 TC 33 10.6699 86.1851 1 4 56
1926325N10085 1926 60 NI BB NOT_NAMED 1926-11-22 00:00:00 TS 10.8387 86.4178 main 610 610 _________OP___ -1 10.9000 86.5000 TC 34 10.7774 86.3357 1 4 54
1926325N10085 1926 60 NI BB NOT_NAMED 1926-11-22 03:00:00 TS 10.9712 86.5963 main 640 640 _________PO___ -1 11.0425 86.6925 TC 36 10.9000 86.5000 2 5 53
1926325N10085 1926 60 NI BB NOT_NAMED 1926-11-22 06:00:00 TS 11.1199 86.7989 main 664 664 _________OP___ -1 11.2000 86.9000 TC 39 11.0397 86.6977 2 5 53
1926325N10085 1926 60 NI BB NOT_NAMED 1926-11-22 09:00:00 TS 11.2750 87.0074 main 694 694 _________PP___ -1 11.3575 87.1075 TC 42 11.1926 86.9074 2 5 53
1926325N10085 1926 60 NI BB NOT_NAMED 1926-11-22 12:00:00 TS 11.4246 87.2067 main 719 719 _________OP___ -1 11.5000 87.3000 TC 45 11.3491 87.1134 2 5 53
1926325N10085 1926 60 NI BB NOT_NAMED 1926-11-22 15:00:00 TS 11.5500 87.3825 main 743 743 _________PO___ -1 11.6000 87.4650 TC 49 11.5000 87.3000 3 4 52
1926325N10085 1926 60 NI BB NOT_NAMED 1926-11-22 18:00:00 TS 11.6620 87.5193 main 763 763 _________OP___ -1 11.7000 87.6000 TC 54 11.6240 87.4386 3 3 45
1926325N10085 1926 60 NI BB NOT_NAMED 1926-11-22 21:00:00 TS 11.7924 87.6289 main 778 778 _________PP___ -1 11.8425 87.7000 TC 59 11.7424 87.5577 3 3 38
1926325N10085 1926 60 NI BB NOT_NAMED 1926-11-23 00:00:00 TS 11.9323 87.7365 main 784 784 _________OP___ -1 12.0000 87.8000 TC 64 11.8646 87.6730 3 4 40
1926325N10085 1926 60 NI BB NOT_NAMED 1926-11-23 03:00:00 TS 12.0712 87.8675 main 786 786 _________PO___ -1 12.1425 87.9350 TC 64 12.0000 87.8000 4 4 44
1926325N10085 1926 60 NI BB NOT_NAMED 1926-11-23 06:00:00 TS 12.2242 88.0283 main 787 762 _________OP___ -1 12.3000 88.1000 TC 64 12.1484 87.9566 4 5 46
1926325N10085 1926 60 NI BB NOT_NAMED 1926-11-23 09:00:00 TS 12.3987 88.2101 main 762 731 _________PP___ -1 12.4850 88.2925 TC 64 12.3125 88.1276 4 5 44
1926325N10085 1926 60 NI BB NOT_NAMED 1926-11-23 12:00:00 TS 12.5976 88.4049 main 731 701 _________OP___ -1 12.7000 88.5000 TC 64 12.4953 88.3098 4 6 42
1926325N10085 1926 60 NI BB NOT_NAMED 1926-11-23 15:00:00 TS 12.8212 88.6000 main 701 671 _________PO___ -1 12.9425 88.7000 TC 64 12.7000 88.5000 4 6 40
1926325N10085 1926 60 NI BB NOT_NAMED 1926-11-23 18:00:00 TS 13.0459 88.7865 main 671 641 _________OP___ -1 13.2000 88.9000 TC 64 12.8918 88.6730 4 6 39
1926325N10085 1926 60 NI BB NOT_NAMED 1926-11-23 21:00:00 TS 13.2611 88.9705 main 636 606 _________PP___ -1 13.4124 89.0852 TC 64 13.1098 88.8558 4 6 38
1926325N10085 1926 60 NI BB NOT_NAMED 1926-11-24 00:00:00 TS 13.5365 89.1804 main 606 566 _________OP___ -1 13.7000 89.3000 TC 64 13.3730 89.0607 4 8 34
1926325N10085 1926 60 NI BB NOT_NAMED 1926-11-24 03:00:00 TS 13.9350 89.4387 main 566 515 _________PO___ -1 14.1700 89.5775 TC 64 13.7000 89.3000 4 10 32
1926325N10085 1926 60 NI BB NOT_NAMED 1926-11-24 06:00:00 TS 14.4154 89.7483 main 515 456 _________OP___ -1 14.7000 89.9000 TC 64 14.1308 89.5966 4 12 33
1926325N10085 1926 60 NI BB NOT_NAMED 1926-11-24 09:00:00 TS 14.8964 90.0921 main 456 414 _________PP___ -1 15.1725 90.2575 TC 64 14.6202 89.9267 4 12 35
1926325N10085 1926 60 NI BB NOT_NAMED 1926-11-24 12:00:00 TS 15.3623 90.4343 main 412 375 _________OP___ -1 15.6000 90.6000 TC 64 15.1245 90.2685 4 11 35
1926325N10085 1926 60 NI BB NOT_NAMED 1926-11-24 15:00:00 TS 15.7824 90.7289 main 375 342 _________PO___ -1 15.9649 90.8578 TC 64 15.6000 90.6000 4 10 35
1926325N10085 1926 60 NI BB NOT_NAMED 1926-11-24 18:00:00 TS 16.1469 90.9970 main 342 314 _________OP___ -1 16.3000 91.1000 TC 64 15.9939 90.8939 4 9 37
1926325N10085 1926 60 NI BB NOT_NAMED 1926-11-24 21:00:00 TS 16.5049 91.2866 main 314 289 _________PP___ -1 16.6575 91.4000 TC 64 16.3522 91.1731 4 9 38
1926325N10085 1926 60 NI BB NOT_NAMED 1926-11-25 00:00:00 TS 16.8423 91.5704 main 289 274 _________OP___ -1 17.0000 91.7000 TC 64 16.6845 91.4407 4 8 39
1926325N10085 1926 60 NI BB NOT_NAMED 1926-11-25 03:00:00 TS 17.1537 91.8288 main 277 245 _________PO___ -1 17.3074 91.9576 TC 59 17.0000 91.7000 4 8 38
1926325N10085 1926 60 NI BB NOT_NAMED 1926-11-25 06:00:00 TS 17.4672 92.0767 main 238 199 _________OP___ -1 17.6000 92.2000 TC 54 17.3345 91.9533 4 8 37
1926325N10085 1926 60 NI BB NOT_NAMED 1926-11-25 09:00:00 TS 17.7836 92.3251 main 199 153 _________PP___ -1 17.9150 92.4500 TC 49 17.6522 92.2002 4 8 38
1926325N10085 1926 60 NI BB NOT_NAMED 1926-11-25 12:00:00 TS 18.0719 92.5735 main 153 122 _________OP___ -1 18.2000 92.7000 TC 45 17.9439 92.4470 4 7 42
1926325N10085 1926 60 NI BB NOT_NAMED 1926-11-25 15:00:00 TS 18.3112 92.8213 main 122 84 _________PO___ -1 18.4224 92.9426 TC 41 18.2000 92.7000 3 6 48
1926325N10085 1926 60 NI BB NOT_NAMED 1926-11-25 18:00:00 TS 18.4941 93.0651 main 84 53 _________OP___ -1 18.6000 93.2000 TC 37 18.4146 92.9639 3 6 55
1926325N10085 1926 60 NI BB NOT_NAMED 1926-11-25 21:00:00 TS 18.6593 93.3383 main 53 23 _________PP___ -1 18.7551 93.4899 TC 33 18.5954 93.2372 3 6 59
1926325N10085 1926 60 NI BB NOT_NAMED 1926-11-26 00:00:00 TS 18.8023 93.6113 main 23 0 _________OP___ -1 18.9000 93.8000 TC 30 18.7535 93.5169 3 5 61
1926325N10085 1926 60 NI BB NOT_NAMED 1926-11-26 03:00:00 NR 18.9000 93.8000 main 0 __________O___ -1 TC 18.9000 93.8000 1 4 61

IBTrACS Databaseについて

本データベースは、米国NOAAが公開する1842年以降の世界の熱帯低気圧のベストトラックデータアーカイブInternational Best Track Archive for Climate Stewardship (IBTrACS)を、ウェブで閲覧しやすい形式に変換したものです。

最終更新日:2021-10-08